sensor_id;sensor_type;location;lat;lon;timestamp;pressure;altitude;pressure_sealevel;temperature;humidity
69411;BME280;56604;48.652;9.194;2023-12-07T00:01:03;96473.03;;;1.56;99.12
69411;BME280;56604;48.652;9.194;2023-12-07T00:03:29;96474.66;;;1.57;99.03
69411;BME280;56604;48.652;9.194;2023-12-07T00:05:54;96471.06;;;1.58;98.91
69411;BME280;56604;48.652;9.194;2023-12-07T00:08:19;96482.16;;;1.52;98.53
69411;BME280;56604;48.652;9.194;2023-12-07T00:10:44;96480.91;;;1.48;98.92
69411;BME280;56604;48.652;9.194;2023-12-07T00:13:10;96476.63;;;1.55;99.42
69411;BME280;56604;48.652;9.194;2023-12-07T00:15:36;96480.78;;;1.56;99.13
69411;BME280;56604;48.652;9.194;2023-12-07T00:18:01;96484.13;;;1.50;99.44
69411;BME280;56604;48.652;9.194;2023-12-07T00:20:28;96477.00;;;1.52;99.52
69411;BME280;56604;48.652;9.194;2023-12-07T00:22:53;96485.13;;;1.49;98.96
69411;BME280;56604;48.652;9.194;2023-12-07T00:25:18;96485.13;;;1.49;99.06
69411;BME280;56604;48.652;9.194;2023-12-07T00:27:44;96492.03;;;1.42;99.20
69411;BME280;56604;48.652;9.194;2023-12-07T00:30:10;96478.69;;;1.45;99.27
69411;BME280;56604;48.652;9.194;2023-12-07T00:32:35;96487.03;;;1.40;99.23
69411;BME280;56604;48.652;9.194;2023-12-07T00:35:00;96491.44;;;1.40;99.01
69411;BME280;56604;48.652;9.194;2023-12-07T00:37:26;96491.06;;;1.43;98.99
69411;BME280;56604;48.652;9.194;2023-12-07T00:39:52;96489.81;;;1.39;98.70
69411;BME280;56604;48.652;9.194;2023-12-07T00:42:17;96484.88;;;1.44;98.38
69411;BME280;56604;48.652;9.194;2023-12-07T00:44:42;96492.81;;;1.42;99.07
69411;BME280;56604;48.652;9.194;2023-12-07T00:47:08;96493.41;;;1.38;98.96
69411;BME280;56604;48.652;9.194;2023-12-07T00:49:33;96497.03;;;1.43;98.12
69411;BME280;56604;48.652;9.194;2023-12-07T00:51:58;96492.47;;;1.45;98.69
69411;BME280;56604;48.652;9.194;2023-12-07T00:54:24;96492.09;;;1.48;98.49
69411;BME280;56604;48.652;9.194;2023-12-07T00:56:49;96485.25;;;1.41;98.98
69411;BME280;56604;48.652;9.194;2023-12-07T00:59:14;96493.19;;;1.39;98.74
69411;BME280;56604;48.652;9.194;2023-12-07T01:01:39;96491.59;;;1.38;98.95
69411;BME280;56604;48.652;9.194;2023-12-07T01:04:05;96486.38;;;1.31;98.27
69411;BME280;56604;48.652;9.194;2023-12-07T01:06:31;96484.75;;;1.30;98.44
69411;BME280;56604;48.652;9.194;2023-12-07T01:08:57;96488.75;;;1.33;98.78
69411;BME280;56604;48.652;9.194;2023-12-07T01:11:22;96501.53;;;1.34;97.90
69411;BME280;56604;48.652;9.194;2023-12-07T01:13:47;96503.50;;;1.32;98.46
69411;BME280;56604;48.652;9.194;2023-12-07T01:16:13;96502.28;;;1.28;98.32
69411;BME280;56604;48.652;9.194;2023-12-07T01:18:38;96526.53;;;1.06;99.30
69411;BME280;56604;48.652;9.194;2023-12-07T01:21:03;96522.31;;;1.05;99.96
69411;BME280;56604;48.652;9.194;2023-12-07T01:23:29;96525.81;;;0.97;100.00
69411;BME280;56604;48.652;9.194;2023-12-07T01:25:54;96522.19;;;0.92;99.71
69411;BME280;56604;48.652;9.194;2023-12-07T01:28:19;96520.91;;;0.87;99.64
69411;BME280;56604;48.652;9.194;2023-12-07T01:30:45;96516.91;;;0.85;99.76
69411;BME280;56604;48.652;9.194;2023-12-07T01:33:10;96526.19;;;0.79;100.00
69411;BME280;56604;48.652;9.194;2023-12-07T01:35:35;96528.69;;;0.73;99.83
69411;BME280;56604;48.652;9.194;2023-12-07T01:38:01;96527.09;;;0.72;100.00
69411;BME280;56604;48.652;9.194;2023-12-07T01:40:26;96533.81;;;0.66;100.00
69411;BME280;56604;48.652;9.194;2023-12-07T01:42:52;96540.66;;;0.59;100.00
69411;BME280;56604;48.652;9.194;2023-12-07T01:45:19;96544.88;;;0.60;100.00
69411;BME280;56604;48.652;9.194;2023-12-07T01:47:46;96547.63;;;0.58;100.00
69411;BME280;56604;48.652;9.194;2023-12-07T01:50:12;96545.56;;;0.54;100.00
69411;BME280;56604;48.652;9.194;2023-12-07T01:52:45;96539.06;;;0.43;100.00
69411;BME280;56604;48.652;9.194;2023-12-07T01:55:13;96544.75;;;0.53;100.00
69411;BME280;56604;48.652;9.194;2023-12-07T01:57:40;96539.78;;;0.52;100.00
69411;BME280;56604;48.652;9.194;2023-12-07T02:00:06;96539.59;;;0.53;100.00
69411;BME280;56604;48.652;9.194;2023-12-07T02:02:32;96544.03;;;0.59;100.00
69411;BME280;56604;48.652;9.194;2023-12-07T02:04:57;96542.28;;;0.60;100.00
69411;BME280;56604;48.652;9.194;2023-12-07T02:07:23;96546.09;;;0.64;100.00
69411;BME280;56604;48.652;9.194;2023-12-07T02:09:49;96541.81;;;0.71;100.00
69411;BME280;56604;48.652;9.194;2023-12-07T02:12:14;96548.97;;;0.69;100.00
69411;BME280;56604;48.652;9.194;2023-12-07T02:14:40;96537.34;;;0.65;100.00
69411;BME280;56604;48.652;9.194;2023-12-07T02:22:53;96530.03;;;0.39;100.00
69411;BME280;56604;48.652;9.194;2023-12-07T02:25:23;96529.88;;;0.40;100.00
69411;BME280;56604;48.652;9.194;2023-12-07T02:27:49;96533.41;;;0.39;100.00
69411;BME280;56604;48.652;9.194;2023-12-07T02:30:15;96533.25;;;0.41;100.00
69411;BME280;56604;48.652;9.194;2023-12-07T02:32:42;96536.56;;;0.35;100.00
69411;BME280;56604;48.652;9.194;2023-12-07T02:35:09;96533.34;;;0.33;100.00
69411;BME280;56604;48.652;9.194;2023-12-07T02:37:42;96539.66;;;0.30;100.00
69411;BME280;56604;48.652;9.194;2023-12-07T02:40:09;96542.09;;;0.32;100.00
69411;BME280;56604;48.652;9.194;2023-12-07T02:42:36;96542.09;;;0.32;100.00
69411;BME280;56604;48.652;9.194;2023-12-07T02:45:03;96546.09;;;0.34;100.00
69411;BME280;56604;48.652;9.194;2023-12-07T02:47:29;96548.06;;;0.32;100.00
69411;BME280;56604;48.652;9.194;2023-12-07T02:49:54;96538.06;;;0.29;100.00
69411;BME280;56604;48.652;9.194;2023-12-07T02:52:19;96529.03;;;0.25;100.00
69411;BME280;56604;48.652;9.194;2023-12-07T02:54:45;96528.44;;;0.23;100.00
69411;BME280;56604;48.652;9.194;2023-12-07T02:57:10;96531.03;;;0.23;100.00
69411;BME280;56604;48.652;9.194;2023-12-07T02:59:36;96520.91;;;0.13;100.00
69411;BME280;56604;48.652;9.194;2023-12-07T03:02:01;96532.75;;;0.08;100.00
69411;BME280;56604;48.652;9.194;2023-12-07T03:04:26;96545.03;;;0.06;100.00
69411;BME280;56604;48.652;9.194;2023-12-07T03:06:51;96542.81;;;0.03;100.00
69411;BME280;56604;48.652;9.194;2023-12-07T03:09:17;96544.00;;;0.00;100.00
69411;BME280;56604;48.652;9.194;2023-12-07T03:11:42;96543.16;;;-0.01;100.00
69411;BME280;56604;48.652;9.194;2023-12-07T03:14:07;96536.31;;;-0.08;100.00
69411;BME280;56604;48.652;9.194;2023-12-07T03:16:33;96543.06;;;-0.07;100.00
69411;BME280;56604;48.652;9.194;2023-12-07T03:19:01;96545.50;;;-0.06;100.00
69411;BME280;56604;48.652;9.194;2023-12-07T03:21:26;96538.25;;;-0.10;100.00
69411;BME280;56604;48.652;9.194;2023-12-07T03:23:51;96535.47;;;-0.09;100.00
69411;BME280;56604;48.652;9.194;2023-12-07T03:26:16;96536.81;;;-0.13;100.00
69411;BME280;56604;48.652;9.194;2023-12-07T03:28:42;96542.34;;;-0.16;100.00
69411;BME280;56604;48.652;9.194;2023-12-07T03:31:07;96545.56;;;-0.14;100.00
69411;BME280;56604;48.652;9.194;2023-12-07T03:33:32;96537.81;;;-0.14;100.00
69411;BME280;56604;48.652;9.194;2023-12-07T03:35:58;96544.56;;;-0.13;100.00
69411;BME280;56604;48.652;9.194;2023-12-07T03:38:23;96549.09;;;-0.15;100.00
69411;BME280;56604;48.652;9.194;2023-12-07T03:40:48;96535.03;;;-0.12;100.00
69411;BME280;56604;48.652;9.194;2023-12-07T03:43:15;96544.84;;;-0.08;100.00
69411;BME280;56604;48.652;9.194;2023-12-07T03:45:40;96547.44;;;-0.08;100.00
69411;BME280;56604;48.652;9.194;2023-12-07T03:48:06;96551.75;;;0.00;100.00
69411;BME280;56604;48.652;9.194;2023-12-07T03:50:31;96545.41;;;0.03;100.00
69411;BME280;56604;48.652;9.194;2023-12-07T03:52:56;96549.34;;;0.13;100.00
69411;BME280;56604;48.652;9.194;2023-12-07T03:55:21;96555.31;;;0.14;100.00
69411;BME280;56604;48.652;9.194;2023-12-07T03:57:47;96548.03;;;0.17;100.00
69411;BME280;56604;48.652;9.194;2023-12-07T04:00:12;96554.97;;;0.17;100.00
69411;BME280;56604;48.652;9.194;2023-12-07T04:02:38;96550.72;;;0.24;100.00
69411;BME280;56604;48.652;9.194;2023-12-07T04:05:03;96551.28;;;0.34;100.00
69411;BME280;56604;48.652;9.194;2023-12-07T04:07:29;96550.91;;;0.37;100.00
69411;BME280;56604;48.652;9.194;2023-12-07T04:09:55;96551.16;;;0.42;100.00
69411;BME280;56604;48.652;9.194;2023-12-07T04:12:20;96551.44;;;0.48;100.00
69411;BME280;56604;48.652;9.194;2023-12-07T04:14:45;96554.31;;;0.53;100.00
69411;BME280;56604;48.652;9.194;2023-12-07T04:17:11;96562.69;;;0.55;100.00
69411;BME280;56604;48.652;9.194;2023-12-07T04:19:36;96563.06;;;0.52;100.00
69411;BME280;56604;48.652;9.194;2023-12-07T04:22:01;96562.69;;;0.55;100.00
69411;BME280;56604;48.652;9.194;2023-12-07T04:24:27;96561.44;;;0.51;100.00
69411;BME280;56604;48.652;9.194;2023-12-07T04:26:52;96556.72;;;0.54;100.00
69411;BME280;56604;48.652;9.194;2023-12-07T04:29:17;96562.06;;;0.53;100.00
69411;BME280;56604;48.652;9.194;2023-12-07T04:31:43;96570.63;;;0.53;100.00
69411;BME280;56604;48.652;9.194;2023-12-07T04:34:09;96568.66;;;0.55;100.00
69411;BME280;56604;48.652;9.194;2023-12-07T04:36:34;96566.25;;;0.54;100.00
69411;BME280;56604;48.652;9.194;2023-12-07T04:39:00;96563.72;;;0.45;100.00
69411;BME280;56604;48.652;9.194;2023-12-07T04:41:25;96563.72;;;0.45;100.00
69411;BME280;56604;48.652;9.194;2023-12-07T04:43:50;96563.72;;;0.45;100.00
69411;BME280;56604;48.652;9.194;2023-12-07T04:46:15;96566.97;;;0.48;100.00
69411;BME280;56604;48.652;9.194;2023-12-07T04:48:41;96569.00;;;0.37;100.00
69411;BME280;56604;48.652;9.194;2023-12-07T04:51:06;96567.59;;;0.35;100.00
69411;BME280;56604;48.652;9.194;2023-12-07T04:53:31;96564.81;;;0.36;100.00
69411;BME280;56604;48.652;9.194;2023-12-07T04:55:57;96564.53;;;0.31;100.00
69411;BME280;56604;48.652;9.194;2023-12-07T04:58:22;96564.88;;;0.28;100.00
69411;BME280;56604;48.652;9.194;2023-12-07T05:00:47;96567.22;;;0.23;100.00
69411;BME280;56604;48.652;9.194;2023-12-07T05:03:12;96568.97;;;0.22;100.00
69411;BME280;56604;48.652;9.194;2023-12-07T05:05:38;96565.94;;;0.19;100.00
69411;BME280;56604;48.652;9.194;2023-12-07T05:08:03;96565.50;;;0.15;100.00
69411;BME280;56604;48.652;9.194;2023-12-07T05:10:29;96565.03;;;0.12;100.00
69411;BME280;56604;48.652;9.194;2023-12-07T05:12:54;96563.13;;;0.06;100.00
69411;BME280;56604;48.652;9.194;2023-12-07T05:15:21;96569.34;;;-0.04;100.00
69411;BME280;56604;48.652;9.194;2023-12-07T05:17:46;96573.44;;;-0.09;100.00
69411;BME280;56604;48.652;9.194;2023-12-07T05:20:11;96566.47;;;-0.09;100.00
69411;BME280;56604;48.652;9.194;2023-12-07T05:22:37;96572.28;;;-0.07;100.00
69411;BME280;56604;48.652;9.194;2023-12-07T05:25:03;96576.56;;;-0.14;100.00
69411;BME280;56604;48.652;9.194;2023-12-07T05:27:30;96580.09;;;-0.15;100.00
69411;BME280;56604;48.652;9.194;2023-12-07T05:29:55;96581.09;;;-0.16;100.00
69411;BME280;56604;48.652;9.194;2023-12-07T05:32:20;96585.16;;;-0.21;100.00
69411;BME280;56604;48.652;9.194;2023-12-07T05:34:46;96579.69;;;-0.27;100.00
69411;BME280;56604;48.652;9.194;2023-12-07T05:37:11;96583.91;;;-0.26;100.00
69411;BME280;56604;48.652;9.194;2023-12-07T05:39:36;96583.44;;;-0.29;100.00
69411;BME280;56604;48.652;9.194;2023-12-07T05:42:02;96588.31;;;-0.34;100.00
69411;BME280;56604;48.652;9.194;2023-12-07T05:44:29;96589.94;;;-0.33;100.00
69411;BME280;56604;48.652;9.194;2023-12-07T05:46:55;96585.44;;;-0.39;100.00
69411;BME280;56604;48.652;9.194;2023-12-07T05:49:20;96585.31;;;-0.46;100.00
69411;BME280;56604;48.652;9.194;2023-12-07T05:51:47;96584.16;;;-0.43;100.00
69411;BME280;56604;48.652;9.194;2023-12-07T05:54:14;96581.59;;;-0.43;100.00
69411;BME280;56604;48.652;9.194;2023-12-07T05:56:39;96583.56;;;-0.46;100.00
69411;BME280;56604;48.652;9.194;2023-12-07T05:59:05;96573.91;;;-0.06;100.00
69411;BME280;56604;48.652;9.194;2023-12-07T06:01:31;96576.03;;;-0.32;100.00
69411;BME280;56604;48.652;9.194;2023-12-07T06:03:57;96581.25;;;-0.40;100.00
69411;BME280;56604;48.652;9.194;2023-12-07T06:06:23;96584.16;;;-0.43;100.00
69411;BME280;56604;48.652;9.194;2023-12-07T06:08:48;96574.53;;;-0.50;100.00
69411;BME280;56604;48.652;9.194;2023-12-07T06:11:14;96579.09;;;-0.60;100.00
69411;BME280;56604;48.652;9.194;2023-12-07T06:13:40;96577.16;;;-0.58;100.00
69411;BME280;56604;48.652;9.194;2023-12-07T06:16:05;96575.75;;;-0.69;100.00
69411;BME280;56604;48.652;9.194;2023-12-07T06:18:30;96573.16;;;-0.69;100.00
69411;BME280;56604;48.652;9.194;2023-12-07T06:20:56;96573.16;;;-0.69;100.00
69411;BME280;56604;48.652;9.194;2023-12-07T06:23:21;96573.34;;;-0.70;100.00
69411;BME280;56604;48.652;9.194;2023-12-07T06:25:46;96569.78;;;-0.69;100.00
69411;BME280;56604;48.652;9.194;2023-12-07T06:28:12;96570.13;;;-0.72;100.00
69411;BME280;56604;48.652;9.194;2023-12-07T06:30:38;96570.13;;;-0.72;100.00
69411;BME280;56604;48.652;9.194;2023-12-07T06:33:03;96569.50;;;-0.74;100.00
69411;BME280;56604;48.652;9.194;2023-12-07T06:35:28;96577.56;;;-0.77;100.00
69411;BME280;56604;48.652;9.194;2023-12-07T06:37:54;96576.44;;;-0.75;100.00
69411;BME280;56604;48.652;9.194;2023-12-07T06:40:19;96577.41;;;-0.76;100.00
69411;BME280;56604;48.652;9.194;2023-12-07T06:42:45;96576.09;;;-0.72;100.00
69411;BME280;56604;48.652;9.194;2023-12-07T06:45:10;96582.09;;;-0.71;100.00
69411;BME280;56604;48.652;9.194;2023-12-07T06:47:39;96575.28;;;-0.72;100.00
69411;BME280;56604;48.652;9.194;2023-12-07T06:50:05;96573.81;;;-0.66;100.00
69411;BME280;56604;48.652;9.194;2023-12-07T06:52:35;96578.97;;;-0.66;100.00
69411;BME280;56604;48.652;9.194;2023-12-07T06:55:01;96578.19;;;-0.67;100.00
69411;BME280;56604;48.652;9.194;2023-12-07T06:57:26;96583.00;;;-0.64;100.00
69411;BME280;56604;48.652;9.194;2023-12-07T06:59:51;96583.34;;;-0.67;100.00
69411;BME280;56604;48.652;9.194;2023-12-07T07:02:16;96575.75;;;-0.69;100.00
69411;BME280;56604;48.652;9.194;2023-12-07T07:04:42;96576.06;;;-0.63;100.00
69411;BME280;56604;48.652;9.194;2023-12-07T07:07:08;96575.25;;;-0.64;100.00
69411;BME280;56604;48.652;9.194;2023-12-07T07:09:34;96577.19;;;-0.66;100.00
69411;BME280;56604;48.652;9.194;2023-12-07T07:11:59;96575.91;;;-0.62;100.00
69411;BME280;56604;48.652;9.194;2023-12-07T07:14:25;96580.19;;;-0.54;100.00
69411;BME280;56604;48.652;9.194;2023-12-07T07:16:50;96576.75;;;-0.47;100.00
69411;BME280;56604;48.652;9.194;2023-12-07T07:19:17;96579.59;;;-0.33;100.00
69411;BME280;56604;48.652;9.194;2023-12-07T07:21:42;96568.56;;;-0.27;100.00
69411;BME280;56604;48.652;9.194;2023-12-07T07:24:07;96572.28;;;-0.07;100.00
69411;BME280;56604;48.652;9.194;2023-12-07T07:26:33;96568.44;;;0.12;100.00
69411;BME280;56604;48.652;9.194;2023-12-07T07:28:58;96566.88;;;0.41;98.87
69411;BME280;56604;48.652;9.194;2023-12-07T07:31:24;96565.34;;;0.47;94.69
69411;BME280;56604;48.652;9.194;2023-12-07T07:33:49;96568.38;;;0.65;96.76
69411;BME280;56604;48.652;9.194;2023-12-07T07:36:15;96568.66;;;0.85;95.51
69411;BME280;56604;48.652;9.194;2023-12-07T07:38:41;96570.44;;;1.14;94.82
69411;BME280;56604;48.652;9.194;2023-12-07T07:41:07;96572.19;;;1.28;94.60
69411;BME280;56604;48.652;9.194;2023-12-07T07:43:32;96572.28;;;1.56;93.24
69411;BME280;56604;48.652;9.194;2023-12-07T07:45:59;96581.59;;;1.72;92.22
69411;BME280;56604;48.652;9.194;2023-12-07T07:48:24;96581.00;;;1.92;91.37
69411;BME280;56604;48.652;9.194;2023-12-07T07:50:51;96570.47;;;2.21;90.02
69411;BME280;56604;48.652;9.194;2023-12-07T07:53:16;96578.59;;;2.40;86.83
69411;BME280;56604;48.652;9.194;2023-12-07T07:55:42;96576.19;;;2.73;85.97
69411;BME280;56604;48.652;9.194;2023-12-07T07:58:07;96570.72;;;2.89;82.31
69411;BME280;56604;48.652;9.194;2023-12-07T08:00:33;96573.75;;;3.00;82.43
69411;BME280;56604;48.652;9.194;2023-12-07T08:02:59;96569.28;;;3.22;80.31
69411;BME280;56604;48.652;9.194;2023-12-07T08:05:25;96568.72;;;3.40;78.69
69411;BME280;56604;48.652;9.194;2023-12-07T08:07:51;96575.16;;;3.50;78.43
69411;BME280;56604;48.652;9.194;2023-12-07T08:10:16;96572.22;;;3.87;76.26
69411;BME280;56604;48.652;9.194;2023-12-07T08:12:42;96567.25;;;4.18;73.74
69411;BME280;56604;48.652;9.194;2023-12-07T08:15:08;96572.25;;;4.46;73.32
69411;BME280;56604;48.652;9.194;2023-12-07T08:17:40;96558.78;;;4.76;71.72
69411;BME280;56604;48.652;9.194;2023-12-07T08:20:07;96559.50;;;5.10;69.65
69411;BME280;56604;48.652;9.194;2023-12-07T08:22:34;96561.09;;;5.11;68.99
69411;BME280;56604;48.652;9.194;2023-12-07T08:24:59;96561.47;;;5.21;68.27
69411;BME280;56604;48.652;9.194;2023-12-07T08:27:25;96571.16;;;5.46;66.83
69411;BME280;56604;48.652;9.194;2023-12-07T08:29:50;96570.44;;;5.70;66.16
69411;BME280;56604;48.652;9.194;2023-12-07T08:32:16;96574.03;;;5.69;66.15
69411;BME280;56604;48.652;9.194;2023-12-07T08:34:44;96569.66;;;5.63;65.45
69411;BME280;56604;48.652;9.194;2023-12-07T08:37:09;96568.97;;;5.43;63.91
69411;BME280;56604;48.652;9.194;2023-12-07T08:39:34;96567.88;;;6.27;64.03
69411;BME280;56604;48.652;9.194;2023-12-07T08:42:00;96565.19;;;6.08;62.36
69411;BME280;56604;48.652;9.194;2023-12-07T08:44:26;96561.28;;;6.24;62.36
69411;BME280;56604;48.652;9.194;2023-12-07T08:46:51;96561.53;;;6.85;61.20
69411;BME280;56604;48.652;9.194;2023-12-07T08:49:16;96572.56;;;6.87;60.26
69411;BME280;56604;48.652;9.194;2023-12-07T08:51:42;96578.56;;;7.06;58.50
69411;BME280;56604;48.652;9.194;2023-12-07T08:54:07;96566.63;;;6.98;61.07
69411;BME280;56604;48.652;9.194;2023-12-07T08:56:32;96568.41;;;7.64;58.32
69411;BME280;56604;48.652;9.194;2023-12-07T08:58:58;96560.56;;;7.64;57.20
69411;BME280;56604;48.652;9.194;2023-12-07T09:01:23;96552.81;;;6.72;59.61
69411;BME280;56604;48.652;9.194;2023-12-07T09:03:48;96548.91;;;7.79;56.13
69411;BME280;56604;48.652;9.194;2023-12-07T09:06:13;96554.75;;;7.14;57.49
69411;BME280;56604;48.652;9.194;2023-12-07T09:08:39;96551.69;;;6.80;56.54
69411;BME280;56604;48.652;9.194;2023-12-07T09:11:04;96547.13;;;6.94;57.72
69411;BME280;56604;48.652;9.194;2023-12-07T09:13:30;96547.91;;;7.50;56.38
69411;BME280;56604;48.652;9.194;2023-12-07T09:15:55;96551.56;;;7.30;56.29
69411;BME280;56604;48.652;9.194;2023-12-07T09:18:20;96550.50;;;7.50;55.57
69411;BME280;56604;48.652;9.194;2023-12-07T09:20:46;96562.97;;;6.37;58.42
69411;BME280;56604;48.652;9.194;2023-12-07T09:23:12;96548.69;;;7.80;55.17
69411;BME280;56604;48.652;9.194;2023-12-07T09:25:38;96548.50;;;7.33;54.58
69411;BME280;56604;48.652;9.194;2023-12-07T09:28:04;96547.59;;;6.72;58.19
69411;BME280;56604;48.652;9.194;2023-12-07T09:30:29;96555.28;;;5.85;60.51
69411;BME280;56604;48.652;9.194;2023-12-07T09:32:55;96552.16;;;5.38;63.86
69411;BME280;56604;48.652;9.194;2023-12-07T09:35:20;96564.63;;;5.23;65.42
69411;BME280;56604;48.652;9.194;2023-12-07T09:37:46;96558.13;;;5.84;63.87
69411;BME280;56604;48.652;9.194;2023-12-07T09:40:22;96552.13;;;5.83;63.39
69411;BME280;56604;48.652;9.194;2023-12-07T09:42:48;96552.03;;;5.97;63.44
69411;BME280;56604;48.652;9.194;2023-12-07T09:45:15;96554.13;;;6.13;59.05
69411;BME280;56604;48.652;9.194;2023-12-07T09:47:42;96558.06;;;6.22;56.39
69411;BME280;56604;48.652;9.194;2023-12-07T09:50:08;96546.47;;;6.18;55.09
69411;BME280;56604;48.652;9.194;2023-12-07T09:52:35;96533.19;;;6.20;55.34
69411;BME280;56604;48.652;9.194;2023-12-07T09:55:02;96533.25;;;6.57;54.98
69411;BME280;56604;48.652;9.194;2023-12-07T09:57:28;96530.81;;;6.18;55.61
69411;BME280;56604;48.652;9.194;2023-12-07T09:59:55;96531.78;;;5.92;55.94
69411;BME280;56604;48.652;9.194;2023-12-07T10:02:21;96515.91;;;6.62;56.37
69411;BME280;56604;48.652;9.194;2023-12-07T10:04:46;96515.63;;;6.70;54.20
69411;BME280;56604;48.652;9.194;2023-12-07T10:07:13;96522.13;;;6.86;54.53
69411;BME280;56604;48.652;9.194;2023-12-07T10:09:39;96520.13;;;7.00;52.80
69411;BME280;56604;48.652;9.194;2023-12-07T10:12:06;96517.06;;;7.40;51.62
69411;BME280;56604;48.652;9.194;2023-12-07T10:14:32;96521.28;;;6.86;52.59
69411;BME280;56604;48.652;9.194;2023-12-07T10:16:59;96513.78;;;6.78;53.32
69411;BME280;56604;48.652;9.194;2023-12-07T10:19:24;96508.63;;;6.27;51.70
69411;BME280;56604;48.652;9.194;2023-12-07T10:21:54;96510.66;;;6.25;51.10
69411;BME280;56604;48.652;9.194;2023-12-07T10:24:20;96497.69;;;6.37;51.12
69411;BME280;56604;48.652;9.194;2023-12-07T10:26:48;96494.94;;;6.32;51.17
69411;BME280;56604;48.652;9.194;2023-12-07T10:29:13;96490.78;;;6.24;51.82
69411;BME280;56604;48.652;9.194;2023-12-07T10:31:39;96487.34;;;6.67;51.87
69411;BME280;56604;48.652;9.194;2023-12-07T10:34:05;96501.50;;;5.59;57.61
69411;BME280;56604;48.652;9.194;2023-12-07T10:36:30;96485.22;;;5.64;57.17
69411;BME280;56604;48.652;9.194;2023-12-07T10:38:56;96489.22;;;4.83;60.48
69411;BME280;56604;48.652;9.194;2023-12-07T10:41:25;96487.34;;;5.04;61.78
69411;BME280;56604;48.652;9.194;2023-12-07T10:43:54;96498.34;;;5.51;60.50
69411;BME280;56604;48.652;9.194;2023-12-07T10:46:22;96489.06;;;5.55;56.78
69411;BME280;56604;48.652;9.194;2023-12-07T10:48:50;96483.09;;;5.79;58.44
69411;BME280;56604;48.652;9.194;2023-12-07T10:51:55;96487.84;;;5.57;57.82
69411;BME280;56604;48.652;9.194;2023-12-07T10:54:30;96487.06;;;5.57;59.60
69411;BME280;56604;48.652;9.194;2023-12-07T10:57:01;96472.91;;;5.71;57.46
69411;BME280;56604;48.652;9.194;2023-12-07T10:59:31;96471.63;;;5.80;58.88
69411;BME280;56604;48.652;9.194;2023-12-07T11:01:57;96469.56;;;5.96;56.62
69411;BME280;56604;48.652;9.194;2023-12-07T11:04:26;96469.56;;;5.96;57.36
69411;BME280;56604;48.652;9.194;2023-12-07T11:06:53;96463.53;;;5.89;56.61
69411;BME280;56604;48.652;9.194;2023-12-07T11:09:27;96466.75;;;5.91;57.38
69411;BME280;56604;48.652;9.194;2023-12-07T11:12:13;96454.72;;;5.90;57.84
69411;BME280;56604;48.652;9.194;2023-12-07T11:14:42;96442.34;;;6.28;57.45
69411;BME280;56604;48.652;9.194;2023-12-07T11:17:08;96442.56;;;6.45;57.01
69411;BME280;56604;48.652;9.194;2023-12-07T11:22:03;96434.91;;;5.57;58.05
69411;BME280;56604;48.652;9.194;2023-12-07T11:24:29;96444.75;;;5.23;59.30
69411;BME280;56604;48.652;9.194;2023-12-07T11:26:54;96433.31;;;4.92;60.36
69411;BME280;56604;48.652;9.194;2023-12-07T11:29:28;96427.66;;;5.02;61.51
69411;BME280;56604;48.652;9.194;2023-12-07T11:32:01;96424.34;;;4.75;58.99
69411;BME280;56604;48.652;9.194;2023-12-07T11:34:38;96429.25;;;4.51;60.58
69411;BME280;56604;48.652;9.194;2023-12-07T11:37:04;96426.50;;;4.40;61.67
69411;BME280;56604;48.652;9.194;2023-12-07T11:39:40;96418.38;;;3.90;62.88
69411;BME280;56604;48.652;9.194;2023-12-07T11:42:15;96422.03;;;3.62;64.14
69411;BME280;56604;48.652;9.194;2023-12-07T11:44:41;96409.22;;;3.60;64.00
69411;BME280;56604;48.652;9.194;2023-12-07T11:47:08;96406.41;;;3.49;63.31
69411;BME280;56604;48.652;9.194;2023-12-07T11:49:35;96398.03;;;3.40;64.90
69411;BME280;56604;48.652;9.194;2023-12-07T11:52:01;96397.22;;;3.53;66.48
69411;BME280;56604;48.652;9.194;2023-12-07T11:54:37;96386.22;;;3.44;64.75
69411;BME280;56604;48.652;9.194;2023-12-07T11:57:03;96388.81;;;3.44;66.16
69411;BME280;56604;48.652;9.194;2023-12-07T11:59:28;96382.44;;;3.47;66.97
69411;BME280;56604;48.652;9.194;2023-12-07T12:01:54;96380.84;;;3.39;65.54
69411;BME280;56604;48.652;9.194;2023-12-07T12:04:21;96376.63;;;3.38;64.59
69411;BME280;56604;48.652;9.194;2023-12-07T12:06:46;96380.63;;;3.34;65.30
69411;BME280;56604;48.652;9.194;2023-12-07T12:09:13;96368.84;;;3.38;64.92
69411;BME280;56604;48.652;9.194;2023-12-07T12:11:44;96366.84;;;3.33;64.88
69411;BME280;56604;48.652;9.194;2023-12-07T12:14:09;96359.03;;;3.27;65.13
69411;BME280;56604;48.652;9.194;2023-12-07T12:16:35;96362.44;;;3.21;64.56
69411;BME280;56604;48.652;9.194;2023-12-07T12:19:00;96360.47;;;3.16;66.83
69411;BME280;56604;48.652;9.194;2023-12-07T12:21:26;96354.28;;;3.30;68.30
69411;BME280;56604;48.652;9.194;2023-12-07T12:23:51;96359.22;;;3.19;70.09
69411;BME280;56604;48.652;9.194;2023-12-07T12:26:17;96353.47;;;3.17;71.58
69411;BME280;56604;48.652;9.194;2023-12-07T12:28:44;96342.84;;;3.18;71.36
69411;BME280;56604;48.652;9.194;2023-12-07T12:31:10;96340.88;;;3.20;71.20
69411;BME280;56604;48.652;9.194;2023-12-07T12:33:37;96338.47;;;3.25;71.69
69411;BME280;56604;48.652;9.194;2023-12-07T12:36:04;96324.88;;;3.30;71.37
69411;BME280;56604;48.652;9.194;2023-12-07T12:38:31;96324.09;;;3.23;68.65
69411;BME280;56604;48.652;9.194;2023-12-07T12:40:57;96317.88;;;3.24;68.63
69411;BME280;56604;48.652;9.194;2023-12-07T12:43:22;96310.88;;;3.24;68.29
69411;BME280;56604;48.652;9.194;2023-12-07T12:45:48;96312.47;;;3.19;69.29
69411;BME280;56604;48.652;9.194;2023-12-07T12:48:13;96311.91;;;3.23;69.77
69411;BME280;56604;48.652;9.194;2023-12-07T12:50:41;96314.50;;;3.23;68.93
69411;BME280;56604;48.652;9.194;2023-12-07T12:53:08;96305.28;;;3.21;69.01
69411;BME280;56604;48.652;9.194;2023-12-07T12:55:36;96313.69;;;3.23;70.46
69411;BME280;56604;48.652;9.194;2023-12-07T12:58:02;96305.50;;;3.19;69.09
69411;BME280;56604;48.652;9.194;2023-12-07T13:00:32;96302.91;;;3.26;69.50
69411;BME280;56604;48.652;9.194;2023-12-07T13:02:59;96303.69;;;3.26;69.14
69411;BME280;56604;48.652;9.194;2023-12-07T13:05:25;96310.69;;;3.26;69.04
69411;BME280;56604;48.652;9.194;2023-12-07T13:07:50;96306.09;;;3.28;69.74